sensor_id;sensor_type;location;lat;lon;timestamp;temperature;humidity
12634;DHT22;6382;48.614;8.880;2023-10-08T00:01:53;12.80;99.90
12634;DHT22;6382;48.614;8.880;2023-10-08T00:04:28;12.90;99.90
12634;DHT22;6382;48.614;8.880;2023-10-08T00:06:55;12.70;99.90
12634;DHT22;6382;48.614;8.880;2023-10-08T00:09:23;12.70;99.90
12634;DHT22;6382;48.614;8.880;2023-10-08T00:11:53;11.40;99.90
12634;DHT22;6382;48.614;8.880;2023-10-08T00:14:22;12.90;99.90
12634;DHT22;6382;48.614;8.880;2023-10-08T00:16:49;12.70;99.90
12634;DHT22;6382;48.614;8.880;2023-10-08T00:19:19;12.80;99.90
12634;DHT22;6382;48.614;8.880;2023-10-08T00:21:48;12.60;99.90
12634;DHT22;6382;48.614;8.880;2023-10-08T00:24:16;12.70;99.90
12634;DHT22;6382;48.614;8.880;2023-10-08T00:26:43;14.30;99.90
12634;DHT22;6382;48.614;8.880;2023-10-08T00:29:10;12.20;99.90
12634;DHT22;6382;48.614;8.880;2023-10-08T00:31:46;13.60;99.90
12634;DHT22;6382;48.614;8.880;2023-10-08T00:34:17;14.90;99.90
12634;DHT22;6382;48.614;8.880;2023-10-08T00:36:50;12.40;99.90
12634;DHT22;6382;48.614;8.880;2023-10-08T00:39:23;13.80;99.90
12634;DHT22;6382;48.614;8.880;2023-10-08T00:41:52;14.80;99.90
12634;DHT22;6382;48.614;8.880;2023-10-08T00:44:27;12.40;99.90
12634;DHT22;6382;48.614;8.880;2023-10-08T00:47:03;12.50;99.90
12634;DHT22;6382;48.614;8.880;2023-10-08T00:49:39;12.60;99.90
12634;DHT22;6382;48.614;8.880;2023-10-08T00:52:21;12.40;99.90
12634;DHT22;6382;48.614;8.880;2023-10-08T00:54:59;12.40;99.90
12634;DHT22;6382;48.614;8.880;2023-10-08T00:57:50;12.10;99.90
12634;DHT22;6382;48.614;8.880;2023-10-08T01:00:25;12.70;99.90
12634;DHT22;6382;48.614;8.880;2023-10-08T01:03:01;13.10;99.90
12634;DHT22;6382;48.614;8.880;2023-10-08T01:05:29;12.80;99.90
12634;DHT22;6382;48.614;8.880;2023-10-08T01:08:18;12.80;99.90
12634;DHT22;6382;48.614;8.880;2023-10-08T01:11:17;12.80;99.90
12634;DHT22;6382;48.614;8.880;2023-10-08T01:13:47;12.80;99.90
12634;DHT22;6382;48.614;8.880;2023-10-08T01:16:35;11.40;99.90
12634;DHT22;6382;48.614;8.880;2023-10-08T01:19:19;12.40;99.90
12634;DHT22;6382;48.614;8.880;2023-10-08T01:22:03;12.80;99.90
12634;DHT22;6382;48.614;8.880;2023-10-08T01:24:50;14.40;99.90
12634;DHT22;6382;48.614;8.880;2023-10-08T01:27:35;15.00;99.90
12634;DHT22;6382;48.614;8.880;2023-10-08T01:30:04;15.10;99.90
12634;DHT22;6382;48.614;8.880;2023-10-08T01:32:44;10.90;99.90
12634;DHT22;6382;48.614;8.880;2023-10-08T01:35:26;12.70;99.90
12634;DHT22;6382;48.614;8.880;2023-10-08T01:38:10;12.80;99.90
12634;DHT22;6382;48.614;8.880;2023-10-08T01:41:10;12.50;99.90
12634;DHT22;6382;48.614;8.880;2023-10-08T01:44:16;12.60;99.90
12634;DHT22;6382;48.614;8.880;2023-10-08T01:47:28;12.80;99.90
12634;DHT22;6382;48.614;8.880;2023-10-08T01:50:15;12.70;99.90
12634;DHT22;6382;48.614;8.880;2023-10-08T01:53:11;12.80;99.90
12634;DHT22;6382;48.614;8.880;2023-10-08T01:55:49;12.80;99.90
12634;DHT22;6382;48.614;8.880;2023-10-08T01:58:23;13.80;99.90
12634;DHT22;6382;48.614;8.880;2023-10-08T02:00:53;12.60;99.90
12634;DHT22;6382;48.614;8.880;2023-10-08T02:03:40;14.90;99.90
12634;DHT22;6382;48.614;8.880;2023-10-08T02:06:30;13.60;99.90
12634;DHT22;6382;48.614;8.880;2023-10-08T02:09:37;12.80;99.90
12634;DHT22;6382;48.614;8.880;2023-10-08T02:12:58;13.10;99.90
12634;DHT22;6382;48.614;8.880;2023-10-08T02:15:50;10.90;99.90
12634;DHT22;6382;48.614;8.880;2023-10-08T02:18:45;10.40;99.90
12634;DHT22;6382;48.614;8.880;2023-10-08T02:21:34;12.90;99.90
12634;DHT22;6382;48.614;8.880;2023-10-08T02:24:41;13.00;99.90
12634;DHT22;6382;48.614;8.880;2023-10-08T02:27:43;11.50;99.90
12634;DHT22;6382;48.614;8.880;2023-10-08T02:30:32;13.40;99.90
12634;DHT22;6382;48.614;8.880;2023-10-08T02:33:06;13.00;99.90
12634;DHT22;6382;48.614;8.880;2023-10-08T02:36:05;12.20;99.90
12634;DHT22;6382;48.614;8.880;2023-10-08T02:39:11;13.00;99.90
12634;DHT22;6382;48.614;8.880;2023-10-08T02:42:33;13.00;99.90
12634;DHT22;6382;48.614;8.880;2023-10-08T02:45:43;10.60;99.90
12634;DHT22;6382;48.614;8.880;2023-10-08T02:48:47;13.00;99.90
12634;DHT22;6382;48.614;8.880;2023-10-08T02:51:39;12.80;99.90
12634;DHT22;6382;48.614;8.880;2023-10-08T02:54:19;12.60;99.90
12634;DHT22;6382;48.614;8.880;2023-10-08T02:57:23;11.70;99.90
12634;DHT22;6382;48.614;8.880;2023-10-08T03:00:04;12.60;99.90
12634;DHT22;6382;48.614;8.880;2023-10-08T03:03:18;10.20;99.90
12634;DHT22;6382;48.614;8.880;2023-10-08T03:06:23;12.70;99.90
12634;DHT22;6382;48.614;8.880;2023-10-08T03:09:15;11.50;99.90
12634;DHT22;6382;48.614;8.880;2023-10-08T03:12:27;14.80;99.90
12634;DHT22;6382;48.614;8.880;2023-10-08T03:15:27;12.70;99.90
12634;DHT22;6382;48.614;8.880;2023-10-08T03:22:29;12.10;99.90
12634;DHT22;6382;48.614;8.880;2023-10-08T03:25:32;11.10;99.90
12634;DHT22;6382;48.614;8.880;2023-10-08T03:31:56;12.80;99.90
12634;DHT22;6382;48.614;8.880;2023-10-08T03:34:46;12.00;99.90
12634;DHT22;6382;48.614;8.880;2023-10-08T03:37:41;11.80;99.90
12634;DHT22;6382;48.614;8.880;2023-10-08T03:40:33;11.50;99.90
12634;DHT22;6382;48.614;8.880;2023-10-08T03:43:23;11.40;99.90
12634;DHT22;6382;48.614;8.880;2023-10-08T03:46:10;10.60;99.90
12634;DHT22;6382;48.614;8.880;2023-10-08T03:49:26;13.10;99.90
12634;DHT22;6382;48.614;8.880;2023-10-08T03:52:26;9.30;99.90
12634;DHT22;6382;48.614;8.880;2023-10-08T03:55:17;11.30;99.90
12634;DHT22;6382;48.614;8.880;2023-10-08T03:57:51;11.30;99.90
12634;DHT22;6382;48.614;8.880;2023-10-08T04:00:46;11.30;99.90
12634;DHT22;6382;48.614;8.880;2023-10-08T04:03:30;12.80;99.90
12634;DHT22;6382;48.614;8.880;2023-10-08T04:09:10;9.90;99.90
12634;DHT22;6382;48.614;8.880;2023-10-08T04:12:22;10.40;99.90
12634;DHT22;6382;48.614;8.880;2023-10-08T04:15:22;11.40;99.90
12634;DHT22;6382;48.614;8.880;2023-10-08T04:18:07;11.40;99.90
12634;DHT22;6382;48.614;8.880;2023-10-08T04:21:21;11.50;99.90
12634;DHT22;6382;48.614;8.880;2023-10-08T04:24:42;9.70;99.90
12634;DHT22;6382;48.614;8.880;2023-10-08T04:30:52;11.40;99.90
12634;DHT22;6382;48.614;8.880;2023-10-08T04:34:09;11.00;99.90
12634;DHT22;6382;48.614;8.880;2023-10-08T04:37:15;9.90;99.90
12634;DHT22;6382;48.614;8.880;2023-10-08T04:46:18;10.90;99.90
12634;DHT22;6382;48.614;8.880;2023-10-08T04:49:32;11.10;99.90
12634;DHT22;6382;48.614;8.880;2023-10-08T04:52:05;9.60;99.90
12634;DHT22;6382;48.614;8.880;2023-10-08T04:55:15;12.80;99.90
12634;DHT22;6382;48.614;8.880;2023-10-08T04:58:16;11.90;99.90
12634;DHT22;6382;48.614;8.880;2023-10-08T05:00:56;11.30;99.90
12634;DHT22;6382;48.614;8.880;2023-10-08T05:03:31;11.60;99.90
12634;DHT22;6382;48.614;8.880;2023-10-08T05:06:01;12.40;99.90
12634;DHT22;6382;48.614;8.880;2023-10-08T05:08:39;9.50;99.90
12634;DHT22;6382;48.614;8.880;2023-10-08T05:11:28;10.70;99.90
12634;DHT22;6382;48.614;8.880;2023-10-08T05:14:36;11.90;99.90
12634;DHT22;6382;48.614;8.880;2023-10-08T05:17:12;11.70;99.90
12634;DHT22;6382;48.614;8.880;2023-10-08T05:19:45;12.00;99.90
12634;DHT22;6382;48.614;8.880;2023-10-08T05:22:26;10.90;99.90
12634;DHT22;6382;48.614;8.880;2023-10-08T05:24:58;10.60;99.90
12634;DHT22;6382;48.614;8.880;2023-10-08T05:27:45;10.70;99.90
12634;DHT22;6382;48.614;8.880;2023-10-08T05:30:23;12.30;99.90
12634;DHT22;6382;48.614;8.880;2023-10-08T05:33:22;10.90;99.90
12634;DHT22;6382;48.614;8.880;2023-10-08T05:36:20;12.70;99.90
12634;DHT22;6382;48.614;8.880;2023-10-08T05:38:57;11.00;99.90
12634;DHT22;6382;48.614;8.880;2023-10-08T05:41:48;12.60;99.90
12634;DHT22;6382;48.614;8.880;2023-10-08T05:44:35;11.90;99.90
12634;DHT22;6382;48.614;8.880;2023-10-08T05:47:21;12.60;99.90
12634;DHT22;6382;48.614;8.880;2023-10-08T05:50:02;12.00;99.90
12634;DHT22;6382;48.614;8.880;2023-10-08T05:52:47;11.10;99.90
12634;DHT22;6382;48.614;8.880;2023-10-08T05:55:42;10.90;99.90
12634;DHT22;6382;48.614;8.880;2023-10-08T05:58:14;11.00;99.90
12634;DHT22;6382;48.614;8.880;2023-10-08T06:00:50;12.40;99.90
12634;DHT22;6382;48.614;8.880;2023-10-08T06:03:19;9.60;99.90
12634;DHT22;6382;48.614;8.880;2023-10-08T06:06:00;12.60;99.90
12634;DHT22;6382;48.614;8.880;2023-10-08T06:08:42;11.90;99.90
12634;DHT22;6382;48.614;8.880;2023-10-08T06:11:28;10.20;99.90
12634;DHT22;6382;48.614;8.880;2023-10-08T06:14:09;12.80;99.90
12634;DHT22;6382;48.614;8.880;2023-10-08T06:17:04;12.40;99.90
12634;DHT22;6382;48.614;8.880;2023-10-08T06:19:51;11.40;99.90
12634;DHT22;6382;48.614;8.880;2023-10-08T06:22:19;12.00;99.90
12634;DHT22;6382;48.614;8.880;2023-10-08T06:24:51;11.60;99.90
12634;DHT22;6382;48.614;8.880;2023-10-08T06:27:38;11.60;99.90
12634;DHT22;6382;48.614;8.880;2023-10-08T06:30:06;13.10;99.90
12634;DHT22;6382;48.614;8.880;2023-10-08T06:32:43;11.70;99.90
12634;DHT22;6382;48.614;8.880;2023-10-08T06:35:12;11.80;99.90
12634;DHT22;6382;48.614;8.880;2023-10-08T06:37:45;11.60;99.90
12634;DHT22;6382;48.614;8.880;2023-10-08T06:40:16;13.60;99.90
12634;DHT22;6382;48.614;8.880;2023-10-08T06:43:01;11.20;99.90
12634;DHT22;6382;48.614;8.880;2023-10-08T06:45:48;11.90;99.90
12634;DHT22;6382;48.614;8.880;2023-10-08T06:48:22;13.90;99.90
12634;DHT22;6382;48.614;8.880;2023-10-08T06:50:52;12.20;99.90
12634;DHT22;6382;48.614;8.880;2023-10-08T06:53:24;12.40;99.90
12634;DHT22;6382;48.614;8.880;2023-10-08T06:55:51;13.30;99.90
12634;DHT22;6382;48.614;8.880;2023-10-08T06:58:23;14.00;99.90
12634;DHT22;6382;48.614;8.880;2023-10-08T07:00:51;12.80;99.90
12634;DHT22;6382;48.614;8.880;2023-10-08T07:03:18;12.90;99.90
12634;DHT22;6382;48.614;8.880;2023-10-08T07:05:47;13.40;99.90
12634;DHT22;6382;48.614;8.880;2023-10-08T07:08:28;13.20;99.90
12634;DHT22;6382;48.614;8.880;2023-10-08T07:11:00;13.30;99.90
12634;DHT22;6382;48.614;8.880;2023-10-08T07:13:28;14.90;99.90
12634;DHT22;6382;48.614;8.880;2023-10-08T07:15:56;14.40;99.90
12634;DHT22;6382;48.614;8.880;2023-10-08T07:18:23;13.50;99.90
12634;DHT22;6382;48.614;8.880;2023-10-08T07:20:54;14.60;99.90
12634;DHT22;6382;48.614;8.880;2023-10-08T07:23:24;15.10;99.90
12634;DHT22;6382;48.614;8.880;2023-10-08T07:26:01;14.60;99.90
12634;DHT22;6382;48.614;8.880;2023-10-08T07:28:38;15.60;99.90
12634;DHT22;6382;48.614;8.880;2023-10-08T07:31:16;14.80;99.90
12634;DHT22;6382;48.614;8.880;2023-10-08T07:33:43;13.90;99.90
12634;DHT22;6382;48.614;8.880;2023-10-08T07:36:10;15.50;99.90
12634;DHT22;6382;48.614;8.880;2023-10-08T07:38:44;13.90;99.90
12634;DHT22;6382;48.614;8.880;2023-10-08T07:41:12;14.20;99.90
12634;DHT22;6382;48.614;8.880;2023-10-08T07:43:42;14.00;99.90
12634;DHT22;6382;48.614;8.880;2023-10-08T07:46:10;15.50;99.90
12634;DHT22;6382;48.614;8.880;2023-10-08T07:48:37;15.80;99.90
12634;DHT22;6382;48.614;8.880;2023-10-08T07:51:09;15.40;99.90
12634;DHT22;6382;48.614;8.880;2023-10-08T07:53:36;14.80;99.90
12634;DHT22;6382;48.614;8.880;2023-10-08T07:56:08;14.70;99.90
12634;DHT22;6382;48.614;8.880;2023-10-08T07:58:35;15.30;99.90
12634;DHT22;6382;48.614;8.880;2023-10-08T08:01:05;15.00;99.90
12634;DHT22;6382;48.614;8.880;2023-10-08T08:03:33;15.10;99.90
12634;DHT22;6382;48.614;8.880;2023-10-08T08:06:04;15.20;99.90
12634;DHT22;6382;48.614;8.880;2023-10-08T08:08:33;15.20;99.90
12634;DHT22;6382;48.614;8.880;2023-10-08T08:11:00;15.30;99.90
12634;DHT22;6382;48.614;8.880;2023-10-08T08:13:32;15.40;99.90
12634;DHT22;6382;48.614;8.880;2023-10-08T08:16:00;15.30;99.90
12634;DHT22;6382;48.614;8.880;2023-10-08T08:18:36;15.40;99.90
12634;DHT22;6382;48.614;8.880;2023-10-08T08:21:08;16.90;99.90
12634;DHT22;6382;48.614;8.880;2023-10-08T08:23:38;15.50;99.90
12634;DHT22;6382;48.614;8.880;2023-10-08T08:26:04;15.50;99.90
12634;DHT22;6382;48.614;8.880;2023-10-08T08:28:38;15.80;99.90
12634;DHT22;6382;48.614;8.880;2023-10-08T08:31:06;15.60;99.90
12634;DHT22;6382;48.614;8.880;2023-10-08T08:33:56;15.60;99.90
12634;DHT22;6382;48.614;8.880;2023-10-08T08:36:23;15.60;99.90
12634;DHT22;6382;48.614;8.880;2023-10-08T08:38:51;15.70;99.90
12634;DHT22;6382;48.614;8.880;2023-10-08T08:41:19;15.80;99.90
12634;DHT22;6382;48.614;8.880;2023-10-08T08:43:48;17.80;99.90
12634;DHT22;6382;48.614;8.880;2023-10-08T08:46:15;16.10;99.90
12634;DHT22;6382;48.614;8.880;2023-10-08T08:48:43;16.30;99.90
12634;DHT22;6382;48.614;8.880;2023-10-08T08:51:14;17.60;99.90
12634;DHT22;6382;48.614;8.880;2023-10-08T08:53:41;17.80;99.90
12634;DHT22;6382;48.614;8.880;2023-10-08T08:56:09;18.10;99.90
12634;DHT22;6382;48.614;8.880;2023-10-08T08:58:36;17.50;99.90
12634;DHT22;6382;48.614;8.880;2023-10-08T09:01:07;17.10;99.90
12634;DHT22;6382;48.614;8.880;2023-10-08T09:03:39;17.30;99.90
12634;DHT22;6382;48.614;8.880;2023-10-08T09:06:06;17.60;99.90
12634;DHT22;6382;48.614;8.880;2023-10-08T09:08:33;17.70;99.90
12634;DHT22;6382;48.614;8.880;2023-10-08T09:11:01;17.90;99.90
12634;DHT22;6382;48.614;8.880;2023-10-08T09:13:28;18.20;99.90
12634;DHT22;6382;48.614;8.880;2023-10-08T09:16:02;19.50;99.90
12634;DHT22;6382;48.614;8.880;2023-10-08T09:18:30;18.40;99.90
12634;DHT22;6382;48.614;8.880;2023-10-08T09:21:09;18.50;99.90
12634;DHT22;6382;48.614;8.880;2023-10-08T09:23:43;18.60;99.90
12634;DHT22;6382;48.614;8.880;2023-10-08T09:26:10;18.70;99.90
12634;DHT22;6382;48.614;8.880;2023-10-08T09:28:37;18.70;99.90
12634;DHT22;6382;48.614;8.880;2023-10-08T09:31:05;19.30;99.90
12634;DHT22;6382;48.614;8.880;2023-10-08T09:33:33;18.90;99.90
12634;DHT22;6382;48.614;8.880;2023-10-08T09:35:59;19.00;99.90
12634;DHT22;6382;48.614;8.880;2023-10-08T09:38:35;19.10;99.90
12634;DHT22;6382;48.614;8.880;2023-10-08T09:41:03;19.20;99.90
12634;DHT22;6382;48.614;8.880;2023-10-08T09:43:30;20.30;99.90
12634;DHT22;6382;48.614;8.880;2023-10-08T09:46:19;19.80;99.90
12634;DHT22;6382;48.614;8.880;2023-10-08T09:48:49;19.90;99.90
12634;DHT22;6382;48.614;8.880;2023-10-08T09:51:18;21.40;99.90
12634;DHT22;6382;48.614;8.880;2023-10-08T09:54:05;20.20;99.90
12634;DHT22;6382;48.614;8.880;2023-10-08T09:56:37;20.30;99.90
12634;DHT22;6382;48.614;8.880;2023-10-08T09:59:07;20.30;99.90
12634;DHT22;6382;48.614;8.880;2023-10-08T10:01:38;20.40;99.90
12634;DHT22;6382;48.614;8.880;2023-10-08T10:04:10;20.40;99.90
12634;DHT22;6382;48.614;8.880;2023-10-08T10:06:38;20.50;99.90
12634;DHT22;6382;48.614;8.880;2023-10-08T10:09:06;20.50;99.90
12634;DHT22;6382;48.614;8.880;2023-10-08T10:11:47;20.60;99.90
12634;DHT22;6382;48.614;8.880;2023-10-08T10:14:14;20.60;99.90
12634;DHT22;6382;48.614;8.880;2023-10-08T10:16:41;20.70;99.90
12634;DHT22;6382;48.614;8.880;2023-10-08T10:19:19;20.80;99.90
12634;DHT22;6382;48.614;8.880;2023-10-08T10:21:46;20.90;99.90
12634;DHT22;6382;48.614;8.880;2023-10-08T10:24:23;20.80;99.90
12634;DHT22;6382;48.614;8.880;2023-10-08T10:27:08;20.80;99.90
12634;DHT22;6382;48.614;8.880;2023-10-08T10:29:35;20.70;99.90
12634;DHT22;6382;48.614;8.880;2023-10-08T10:32:02;20.70;99.90
12634;DHT22;6382;48.614;8.880;2023-10-08T10:34:31;20.70;99.90
12634;DHT22;6382;48.614;8.880;2023-10-08T10:37:01;20.60;99.90
12634;DHT22;6382;48.614;8.880;2023-10-08T10:39:53;20.70;99.90
12634;DHT22;6382;48.614;8.880;2023-10-08T10:42:22;20.70;99.90
12634;DHT22;6382;48.614;8.880;2023-10-08T10:44:49;20.70;99.90
12634;DHT22;6382;48.614;8.880;2023-10-08T10:47:16;21.70;99.90
12634;DHT22;6382;48.614;8.880;2023-10-08T10:49:44;21.00;99.90
12634;DHT22;6382;48.614;8.880;2023-10-08T10:52:26;21.10;99.90
12634;DHT22;6382;48.614;8.880;2023-10-08T10:55:12;21.30;99.90
12634;DHT22;6382;48.614;8.880;2023-10-08T10:57:55;21.50;99.90
12634;DHT22;6382;48.614;8.880;2023-10-08T11:00:24;21.60;99.90
12634;DHT22;6382;48.614;8.880;2023-10-08T11:03:01;21.80;99.90
12634;DHT22;6382;48.614;8.880;2023-10-08T11:05:32;21.90;99.90
12634;DHT22;6382;48.614;8.880;2023-10-08T11:08:05;21.90;99.90
12634;DHT22;6382;48.614;8.880;2023-10-08T11:10:34;22.00;99.90
12634;DHT22;6382;48.614;8.880;2023-10-08T11:13:01;22.10;99.90
12634;DHT22;6382;48.614;8.880;2023-10-08T11:15:28;22.70;99.90
12634;DHT22;6382;48.614;8.880;2023-10-08T11:18:07;22.90;99.90
12634;DHT22;6382;48.614;8.880;2023-10-08T11:20:35;22.40;99.90
12634;DHT22;6382;48.614;8.880;2023-10-08T11:23:06;22.40;99.90
12634;DHT22;6382;48.614;8.880;2023-10-08T11:25:55;22.80;99.90
12634;DHT22;6382;48.614;8.880;2023-10-08T11:28:22;22.50;99.90
12634;DHT22;6382;48.614;8.880;2023-10-08T11:30:54;23.00;99.70
12634;DHT22;6382;48.614;8.880;2023-10-08T11:33:21;22.70;99.30
12634;DHT22;6382;48.614;8.880;2023-10-08T11:35:57;22.70;99.10
12634;DHT22;6382;48.614;8.880;2023-10-08T11:38:28;22.70;97.60
12634;DHT22;6382;48.614;8.880;2023-10-08T11:41:13;22.80;96.40
12634;DHT22;6382;48.614;8.880;2023-10-08T11:43:50;22.90;98.20
12634;DHT22;6382;48.614;8.880;2023-10-08T11:46:27;22.90;98.10
12634;DHT22;6382;48.614;8.880;2023-10-08T11:48:59;23.00;98.50
12634;DHT22;6382;48.614;8.880;2023-10-08T11:51:31;23.70;99.00
12634;DHT22;6382;48.614;8.880;2023-10-08T11:53:59;23.00;98.50
12634;DHT22;6382;48.614;8.880;2023-10-08T11:56:29;23.00;99.40
12634;DHT22;6382;48.614;8.880;2023-10-08T11:58:56;22.80;99.00
12634;DHT22;6382;48.614;8.880;2023-10-08T12:01:24;22.90;98.70
12634;DHT22;6382;48.614;8.880;2023-10-08T12:03:51;22.90;98.90
12634;DHT22;6382;48.614;8.880;2023-10-08T12:06:18;23.00;99.10
12634;DHT22;6382;48.614;8.880;2023-10-08T12:08:46;23.00;99.10
12634;DHT22;6382;48.614;8.880;2023-10-08T12:11:13;23.10;97.40
12634;DHT22;6382;48.614;8.880;2023-10-08T12:13:41;23.30;96.60
12634;DHT22;6382;48.614;8.880;2023-10-08T12:16:11;23.30;96.60
12634;DHT22;6382;48.614;8.880;2023-10-08T12:18:45;23.40;96.50
12634;DHT22;6382;48.614;8.880;2023-10-08T12:21:15;23.50;96.00
12634;DHT22;6382;48.614;8.880;2023-10-08T12:23:42;23.60;95.10
12634;DHT22;6382;48.614;8.880;2023-10-08T12:26:10;23.50;95.40
12634;DHT22;6382;48.614;8.880;2023-10-08T12:28:42;23.50;95.30
12634;DHT22;6382;48.614;8.880;2023-10-08T12:31:12;23.60;95.00
12634;DHT22;6382;48.614;8.880;2023-10-08T12:33:39;23.60;95.50
12634;DHT22;6382;48.614;8.880;2023-10-08T12:36:07;23.70;95.80
12634;DHT22;6382;48.614;8.880;2023-10-08T12:38:40;23.80;94.50
12634;DHT22;6382;48.614;8.880;2023-10-08T12:41:08;23.80;94.70
12634;DHT22;6382;48.614;8.880;2023-10-08T12:43:39;23.80;94.20
12634;DHT22;6382;48.614;8.880;2023-10-08T12:46:09;23.80;94.40
12634;DHT22;6382;48.614;8.880;2023-10-08T12:48:45;23.70;94.90
12634;DHT22;6382;48.614;8.880;2023-10-08T12:51:15;23.80;94.50
12634;DHT22;6382;48.614;8.880;2023-10-08T12:53:42;23.80;93.80
12634;DHT22;6382;48.614;8.880;2023-10-08T12:56:17;23.80;93.90
12634;DHT22;6382;48.614;8.880;2023-10-08T12:58:48;23.90;94.60
12634;DHT22;6382;48.614;8.880;2023-10-08T13:01:15;23.80;95.30
12634;DHT22;6382;48.614;8.880;2023-10-08T13:03:44;23.90;95.70
12634;DHT22;6382;48.614;8.880;2023-10-08T13:06:15;23.70;95.30
12634;DHT22;6382;48.614;8.880;2023-10-08T13:08:49;23.50;94.00
12634;DHT22;6382;48.614;8.880;2023-10-08T13:11:16;23.60;93.90
12634;DHT22;6382;48.614;8.880;2023-10-08T13:13:52;23.60;95.20
12634;DHT22;6382;48.614;8.880;2023-10-08T13:16:19;23.50;94.90
12634;DHT22;6382;48.614;8.880;2023-10-08T13:18:48;23.50;94.90
12634;DHT22;6382;48.614;8.880;2023-10-08T13:21:15;23.60;94.00
12634;DHT22;6382;48.614;8.880;2023-10-08T13:23:42;23.80;93.10
12634;DHT22;6382;48.614;8.880;2023-10-08T13:26:09;23.80;92.20
12634;DHT22;6382;48.614;8.880;2023-10-08T13:28:36;24.70;92.60
12634;DHT22;6382;48.614;8.880;2023-10-08T13:31:03;24.00;92.40
12634;DHT22;6382;48.614;8.880;2023-10-08T13:33:37;24.10;92.80
12634;DHT22;6382;48.614;8.880;2023-10-08T13:36:06;24.00;93.80
12634;DHT22;6382;48.614;8.880;2023-10-08T13:38:44;23.90;94.30
12634;DHT22;6382;48.614;8.880;2023-10-08T13:41:14;23.90;94.20
12634;DHT22;6382;48.614;8.880;2023-10-08T13:43:47;23.70;93.30
12634;DHT22;6382;48.614;8.880;2023-10-08T13:46:18;23.70;92.60
12634;DHT22;6382;48.614;8.880;2023-10-08T13:48:46;23.70;92.60
12634;DHT22;6382;48.614;8.880;2023-10-08T13:51:16;23.50;94.00
12634;DHT22;6382;48.614;8.880;2023-10-08T13:53:48;23.50;93.60
12634;DHT22;6382;48.614;8.880;2023-10-08T13:56:20;23.40;92.20
12634;DHT22;6382;48.614;8.880;2023-10-08T13:58:53;23.20;92.50
12634;DHT22;6382;48.614;8.880;2023-10-08T14:01:31;23.50;91.00
12634;DHT22;6382;48.614;8.880;2023-10-08T14:04:00;23.40;92.10
12634;DHT22;6382;48.614;8.880;2023-10-08T14:06:33;23.90;92.90
12634;DHT22;6382;48.614;8.880;2023-10-08T14:09:01;23.30;93.30
12634;DHT22;6382;48.614;8.880;2023-10-08T14:11:33;23.40;92.20
12634;DHT22;6382;48.614;8.880;2023-10-08T14:14:00;23.50;91.00
12634;DHT22;6382;48.614;8.880;2023-10-08T14:16:34;23.70;93.30
12634;DHT22;6382;48.614;8.880;2023-10-08T14:19:01;23.90;92.90
12634;DHT22;6382;48.614;8.880;2023-10-08T14:21:31;24.00;93.00
12634;DHT22;6382;48.614;8.880;2023-10-08T14:24:03;24.10;92.80
12634;DHT22;6382;48.614;8.880;2023-10-08T14:26:30;24.10;91.70
12634;DHT22;6382;48.614;8.880;2023-10-08T14:29:03;24.20;92.50
12634;DHT22;6382;48.614;8.880;2023-10-08T14:31:41;24.20;91.80
12634;DHT22;6382;48.614;8.880;2023-10-08T14:34:11;24.10;88.90
12634;DHT22;6382;48.614;8.880;2023-10-08T14:36:44;24.10;92.80
12634;DHT22;6382;48.614;8.880;2023-10-08T14:39:29;23.90;93.90
12634;DHT22;6382;48.614;8.880;2023-10-08T14:42:15;23.90;90.50
12634;DHT22;6382;48.614;8.880;2023-10-08T14:45:00;23.80;92.80
12634;DHT22;6382;48.614;8.880;2023-10-08T14:47:27;23.80;94.00
12634;DHT22;6382;48.614;8.880;2023-10-08T14:49:54;23.60;91.30
12634;DHT22;6382;48.614;8.880;2023-10-08T14:52:21;23.60;92.30
12634;DHT22;6382;48.614;8.880;2023-10-08T14:54:49;23.60;92.30
12634;DHT22;6382;48.614;8.880;2023-10-08T14:57:18;23.60;92.10
12634;DHT22;6382;48.614;8.880;2023-10-08T14:59:45;23.90;92.10
12634;DHT22;6382;48.614;8.880;2023-10-08T15:02:12;24.10;91.90
12634;DHT22;6382;48.614;8.880;2023-10-08T15:04:39;24.20;91.50
12634;DHT22;6382;48.614;8.880;2023-10-08T15:07:06;24.20;91.50
12634;DHT22;6382;48.614;8.880;2023-10-08T15:09:37;24.30;91.20
12634;DHT22;6382;48.614;8.880;2023-10-08T15:12:05;24.40;90.40
12634;DHT22;6382;48.614;8.880;2023-10-08T15:14:35;24.40;90.70
12634;DHT22;6382;48.614;8.880;2023-10-08T15:17:04;24.20;91.30
12634;DHT22;6382;48.614;8.880;2023-10-08T15:19:32;24.30;88.50
12634;DHT22;6382;48.614;8.880;2023-10-08T15:21:58;24.30;87.50
12634;DHT22;6382;48.614;8.880;2023-10-08T15:24:25;24.40;88.60
12634;DHT22;6382;48.614;8.880;2023-10-08T15:26:52;24.30;88.30
12634;DHT22;6382;48.614;8.880;2023-10-08T15:29:20;24.30;88.40
12634;DHT22;6382;48.614;8.880;2023-10-08T15:31:53;24.20;89.20
12634;DHT22;6382;48.614;8.880;2023-10-08T15:34:21;24.30;86.30
12634;DHT22;6382;48.614;8.880;2023-10-08T15:37:03;24.20;86.60
12634;DHT22;6382;48.614;8.880;2023-10-08T15:39:30;24.20;87.00
12634;DHT22;6382;48.614;8.880;2023-10-08T15:41:57;24.10;89.30
12634;DHT22;6382;48.614;8.880;2023-10-08T15:44:24;24.00;90.10
12634;DHT22;6382;48.614;8.880;2023-10-08T15:46:51;23.80;89.70
12634;DHT22;6382;48.614;8.880;2023-10-08T15:49:18;23.80;89.30
12634;DHT22;6382;48.614;8.880;2023-10-08T15:51:48;23.70;89.80
12634;DHT22;6382;48.614;8.880;2023-10-08T15:54:14;23.50;90.10
12634;DHT22;6382;48.614;8.880;2023-10-08T15:56:47;23.40;89.50
12634;DHT22;6382;48.614;8.880;2023-10-08T15:59:14;23.30;89.50
12634;DHT22;6382;48.614;8.880;2023-10-08T16:01:41;23.30;90.10
12634;DHT22;6382;48.614;8.880;2023-10-08T16:04:12;23.20;90.70
12634;DHT22;6382;48.614;8.880;2023-10-08T16:06:39;23.10;91.50
12634;DHT22;6382;48.614;8.880;2023-10-08T16:09:06;23.00;91.90
12634;DHT22;6382;48.614;8.880;2023-10-08T16:11:33;22.90;92.00
12634;DHT22;6382;48.614;8.880;2023-10-08T16:14:01;22.70;92.10
12634;DHT22;6382;48.614;8.880;2023-10-08T16:16:30;22.50;92.40
12634;DHT22;6382;48.614;8.880;2023-10-08T16:18:56;22.50;92.80
12634;DHT22;6382;48.614;8.880;2023-10-08T16:21:23;22.40;93.00
12634;DHT22;6382;48.614;8.880;2023-10-08T16:23:50;22.20;93.40
12634;DHT22;6382;48.614;8.880;2023-10-08T16:26:17;22.10;93.40
12634;DHT22;6382;48.614;8.880;2023-10-08T16:28:44;22.00;93.40
12634;DHT22;6382;48.614;8.880;2023-10-08T16:31:10;21.80;93.40
12634;DHT22;6382;48.614;8.880;2023-10-08T16:33:37;21.60;93.60
12634;DHT22;6382;48.614;8.880;2023-10-08T16:36:04;21.50;93.90
12634;DHT22;6382;48.614;8.880;2023-10-08T16:38:36;21.30;94.30
12634;DHT22;6382;48.614;8.880;2023-10-08T16:41:03;21.20;94.70
12634;DHT22;6382;48.614;8.880;2023-10-08T16:43:30;21.20;95.00
12634;DHT22;6382;48.614;8.880;2023-10-08T16:45:56;21.00;95.20
12634;DHT22;6382;48.614;8.880;2023-10-08T16:48:25;20.80;96.40
12634;DHT22;6382;48.614;8.880;2023-10-08T16:50:52;21.90;96.90
12634;DHT22;6382;48.614;8.880;2023-10-08T16:53:18;21.30;97.30
12634;DHT22;6382;48.614;8.880;2023-10-08T16:55:46;20.10;97.90
12634;DHT22;6382;48.614;8.880;2023-10-08T16:58:13;19.70;98.60
12634;DHT22;6382;48.614;8.880;2023-10-08T17:00:40;19.50;99.00
12634;DHT22;6382;48.614;8.880;2023-10-08T17:03:06;19.20;99.80
12634;DHT22;6382;48.614;8.880;2023-10-08T17:05:33;19.10;99.90